createdAt,value
2022-08-11T00:02:32.457Z,1.63
2022-08-11T00:05:07.264Z,1.50
2022-08-11T00:07:36.290Z,1.40
2022-08-11T00:10:06.711Z,1.23
2022-08-11T00:12:34.925Z,1.80
2022-08-11T00:15:03.236Z,1.83
2022-08-11T00:17:32.929Z,2.53
2022-08-11T00:20:16.734Z,2.00
2022-08-11T00:22:47.639Z,3.60
2022-08-11T00:25:19.581Z,1.50
2022-08-11T00:27:49.032Z,2.03
2022-08-11T00:30:17.411Z,1.80
2022-08-11T00:32:54.274Z,2.03
2022-08-11T00:35:52.128Z,2.03
2022-08-11T00:38:17.002Z,1.73
2022-08-11T00:40:54.242Z,2.10
2022-08-11T00:43:27.536Z,1.90
2022-08-11T00:46:24.280Z,1.60
2022-08-11T00:49:12.100Z,2.00
2022-08-11T00:52:04.270Z,1.90
2022-08-11T00:55:20.149Z,1.80
2022-08-11T00:58:33.380Z,1.60
2022-08-11T01:01:17.278Z,1.80
2022-08-11T01:04:41.002Z,1.70
2022-08-11T01:08:02.940Z,2.20
2022-08-11T01:11:12.753Z,1.43
2022-08-11T01:14:13.630Z,1.80
2022-08-11T01:17:11.461Z,1.77
2022-08-11T01:20:45.493Z,1.97
2022-08-11T01:23:43.890Z,1.87
2022-08-11T01:27:01.456Z,3.00
2022-08-11T01:30:16.851Z,1.60
2022-08-11T01:33:58.310Z,1.30
2022-08-11T01:36:58.998Z,1.40
2022-08-11T01:40:09.149Z,1.70
2022-08-11T01:43:28.653Z,1.60
2022-08-11T01:45:58.993Z,1.80
2022-08-11T01:48:38.032Z,1.77
2022-08-11T01:51:30.319Z,1.50
2022-08-11T01:54:04.437Z,1.80
2022-08-11T01:56:57.018Z,1.60
2022-08-11T01:59:30.062Z,1.47
2022-08-11T02:02:48.080Z,1.77
2022-08-11T02:05:30.324Z,2.10
2022-08-11T02:08:04.317Z,1.90
2022-08-11T02:10:57.244Z,2.17
2022-08-11T02:13:36.894Z,1.60
2022-08-11T02:16:14.041Z,1.70
2022-08-11T02:19:01.409Z,1.90
2022-08-11T02:21:55.538Z,1.80
2022-08-11T02:24:28.013Z,1.93
2022-08-11T02:27:03.043Z,1.80
2022-08-11T02:29:34.490Z,2.10
2022-08-11T02:32:31.144Z,1.70
2022-08-11T02:35:10.987Z,1.60
2022-08-11T02:37:47.169Z,1.87
2022-08-11T02:40:27.344Z,2.00
2022-08-11T02:43:10.368Z,1.80
2022-08-11T02:45:56.494Z,2.10
2022-08-11T02:48:57.335Z,3.30
2022-08-11T02:51:31.358Z,1.77
2022-08-11T02:54:08.485Z,2.37
2022-08-11T02:56:44.628Z,1.57
2022-08-11T02:59:47.275Z,2.03
2022-08-11T03:02:23.610Z,1.93
2022-08-11T03:05:02.597Z,2.20
2022-08-11T03:07:35.392Z,2.20
2022-08-11T03:10:10.348Z,2.00
2022-08-11T03:13:03.731Z,2.47
2022-08-11T03:15:57.012Z,2.30
2022-08-11T03:18:27.783Z,1.93
2022-08-11T03:21:03.881Z,2.00
2022-08-11T03:23:38.526Z,2.00
2022-08-11T03:26:11.136Z,2.30
2022-08-11T03:28:54.514Z,2.10
2022-08-11T03:31:27.001Z,2.13
2022-08-11T03:34:06.595Z,2.67
2022-08-11T03:37:16.309Z,2.00
2022-08-11T03:39:56.695Z,2.07
2022-08-11T03:42:29.049Z,2.00
2022-08-11T03:45:26.135Z,2.70
2022-08-11T03:48:07.193Z,2.60
2022-08-11T03:50:55.661Z,2.47
2022-08-11T03:53:42.011Z,2.40
2022-08-11T03:57:11.064Z,3.03
2022-08-11T04:00:19.231Z,2.10
2022-08-11T04:03:38.370Z,3.27
2022-08-11T04:06:55.650Z,2.47
2022-08-11T04:10:11.470Z,2.50
2022-08-11T04:13:47.699Z,2.63
2022-08-11T04:16:39.423Z,3.13
2022-08-11T04:19:54.095Z,3.50
2022-08-11T04:24:35.706Z,3.33
2022-08-11T04:26:57.581Z,3.07
2022-08-11T04:30:03.914Z,2.80
2022-08-11T04:33:05.551Z,3.27
2022-08-11T04:35:50.231Z,3.13
2022-08-11T04:38:47.115Z,3.50
2022-08-11T04:42:12.486Z,3.60
2022-08-11T04:45:03.796Z,3.30
2022-08-11T04:48:25.058Z,3.20
2022-08-11T04:51:25.889Z,3.00
2022-08-11T04:54:19.233Z,3.50
2022-08-11T04:57:05.558Z,3.60
2022-08-11T05:00:21.667Z,3.40
2022-08-11T05:03:23.775Z,3.80
2022-08-11T05:06:48.495Z,4.40
2022-08-11T05:09:35.960Z,3.90
2022-08-11T05:12:35.730Z,4.20
2022-08-11T05:15:21.457Z,3.57
2022-08-11T05:18:29.327Z,3.90
2022-08-11T05:21:16.002Z,4.83
2022-08-11T05:24:07.685Z,3.87
2022-08-11T05:27:01.066Z,3.63
2022-08-11T05:29:58.113Z,4.17
2022-08-11T05:32:44.226Z,4.07
2022-08-11T05:36:00.537Z,4.20
2022-08-11T05:38:19.244Z,4.30
2022-08-11T05:41:08.924Z,4.47
2022-08-11T05:44:19.814Z,4.70
2022-08-11T05:47:04.124Z,4.67
2022-08-11T05:49:52.567Z,4.43
2022-08-11T05:52:41.718Z,4.50
2022-08-11T05:55:28.315Z,4.70
2022-08-11T05:57:59.122Z,3.97
2022-08-11T06:00:27.483Z,4.50
2022-08-11T06:03:00.909Z,4.50
2022-08-11T06:05:38.172Z,4.50
2022-08-11T06:08:07.298Z,4.43
2022-08-11T06:10:36.797Z,4.40
2022-08-11T06:13:07.543Z,4.20
2022-08-11T06:15:45.187Z,4.73
2022-08-11T06:18:14.364Z,4.20
2022-08-11T06:20:48.608Z,4.10
2022-08-11T06:23:18.706Z,3.97
2022-08-11T06:25:47.135Z,4.20
2022-08-11T06:28:20.861Z,3.33
2022-08-11T06:30:49.368Z,3.47
2022-08-11T06:33:20.466Z,4.00
2022-08-11T06:35:57.095Z,4.87
2022-08-11T06:38:40.733Z,3.43
2022-08-11T06:41:33.390Z,3.63
2022-08-11T06:44:10.295Z,3.07
2022-08-11T06:46:40.640Z,3.50
2022-08-11T06:49:30.189Z,3.63
2022-08-11T06:52:01.817Z,3.83
2022-08-11T06:54:34.929Z,3.77
2022-08-11T06:57:36.220Z,3.20
2022-08-11T07:00:25.266Z,4.20
2022-08-11T07:02:54.706Z,3.63
2022-08-11T07:05:25.852Z,3.77
2022-08-11T07:09:14.940Z,3.40
2022-08-11T07:12:19.574Z,3.60
2022-08-11T07:15:10.276Z,2.97
2022-08-11T07:17:44.180Z,3.10
2022-08-11T07:20:29.910Z,3.60
2022-08-11T07:23:18.237Z,3.50
2022-08-11T07:26:06.682Z,3.60
2022-08-11T07:28:52.947Z,2.93
2022-08-11T07:31:29.174Z,2.90
2022-08-11T07:34:11.185Z,3.17
2022-08-11T07:36:48.206Z,3.13
2022-08-11T07:39:19.757Z,3.03
2022-08-11T07:41:48.513Z,3.17
2022-08-11T07:44:17.262Z,3.00
2022-08-11T07:47:06.251Z,3.30
2022-08-11T07:49:54.554Z,2.77
2022-08-11T07:52:30.452Z,2.80
2022-08-11T07:55:02.210Z,2.97
2022-08-11T07:58:14.740Z,2.70
2022-08-11T08:00:55.610Z,3.37
2022-08-11T08:03:54.661Z,2.50
2022-08-11T08:06:41.869Z,2.67
2022-08-11T08:09:27.581Z,3.10
2022-08-11T08:12:13.852Z,2.43
2022-08-11T08:15:01.160Z,2.77
2022-08-11T08:18:20.903Z,3.20
2022-08-11T08:20:38.574Z,2.40
2022-08-11T08:23:08.430Z,2.40
2022-08-11T08:25:39.219Z,2.10
2022-08-11T08:28:08.969Z,2.60
2022-08-11T08:30:49.501Z,2.17
2022-08-11T08:33:21.341Z,2.50
2022-08-11T08:35:54.819Z,2.73
2022-08-11T08:38:25.827Z,2.27
2022-08-11T08:40:56.319Z,2.20
2022-08-11T08:43:24.938Z,2.17
2022-08-11T08:45:55.245Z,2.70
2022-08-11T08:48:23.519Z,2.40
2022-08-11T08:51:12.326Z,2.20
2022-08-11T08:53:52.661Z,3.30
2022-08-11T08:56:25.943Z,2.37
2022-08-11T08:58:54.226Z,3.00
2022-08-11T09:01:22.579Z,2.23
2022-08-11T09:04:05.305Z,2.60
2022-08-11T09:06:39.813Z,2.10
2022-08-11T09:09:10.263Z,2.67
2022-08-11T09:11:56.854Z,2.07
2022-08-11T09:14:46.412Z,2.10
2022-08-11T09:17:14.630Z,1.87
2022-08-11T09:19:42.929Z,1.93
2022-08-11T09:22:37.525Z,1.60
2022-08-11T09:25:25.694Z,2.13
2022-08-11T09:27:54.176Z,1.60
2022-08-11T09:30:22.473Z,2.30
2022-08-11T09:32:50.695Z,1.93
2022-08-11T09:35:19.463Z,9.27
2022-08-11T09:38:04.932Z,3.90
2022-08-11T09:40:34.606Z,2.50
2022-08-11T09:43:23.896Z,2.67
2022-08-11T09:45:54.047Z,3.27
2022-08-11T09:48:23.099Z,2.10
2022-08-11T09:50:52.443Z,2.73
2022-08-11T09:53:37.251Z,2.40
2022-08-11T09:56:30.713Z,2.50
2022-08-11T09:58:59.906Z,2.33
2022-08-11T10:01:32.638Z,2.00
2022-08-11T10:04:16.555Z,2.27
2022-08-11T10:07:04.358Z,2.40
2022-08-11T10:09:39.281Z,2.07
2022-08-11T10:12:12.102Z,1.90
2022-08-11T10:15:02.478Z,2.13
2022-08-11T10:17:33.095Z,2.13
2022-08-11T10:20:04.312Z,2.10
2022-08-11T10:22:52.453Z,2.17
2022-08-11T10:25:38.245Z,1.77
2022-08-11T10:28:32.885Z,1.90
2022-08-11T10:31:16.661Z,1.83
2022-08-11T10:34:04.897Z,2.33
2022-08-11T10:36:34.283Z,2.17
2022-08-11T10:39:04.166Z,2.03
2022-08-11T10:42:08.619Z,2.33
2022-08-11T10:44:40.664Z,2.80
2022-08-11T10:47:26.901Z,2.00
2022-08-11T10:50:08.926Z,2.40
2022-08-11T10:52:55.258Z,1.80
2022-08-11T10:55:41.639Z,1.90
2022-08-11T10:58:27.667Z,2.20
2022-08-11T11:00:58.861Z,2.60
2022-08-11T11:03:27.646Z,2.00
2022-08-11T11:06:13.301Z,2.20
2022-08-11T11:08:55.548Z,2.50
2022-08-11T11:11:45.921Z,1.90
2022-08-11T11:14:33.365Z,2.40
2022-08-11T11:17:23.568Z,2.27
2022-08-11T11:19:55.537Z,2.00
2022-08-11T11:22:42.347Z,1.90
2022-08-11T11:25:22.441Z,1.70
2022-08-11T11:28:29.069Z,2.00
2022-08-11T11:31:07.928Z,1.93
2022-08-11T11:34:06.619Z,2.13
2022-08-11T11:36:46.651Z,1.93
2022-08-11T11:39:15.059Z,2.00
2022-08-11T11:41:43.327Z,2.47
2022-08-11T11:44:13.082Z,1.80
2022-08-11T11:46:41.453Z,2.20
2022-08-11T11:49:16.948Z,2.13
2022-08-11T11:51:46.056Z,1.90
2022-08-11T11:54:18.531Z,2.00
2022-08-11T11:56:46.734Z,1.90
2022-08-11T11:59:32.570Z,2.30
2022-08-11T12:02:00.858Z,2.00
2022-08-11T12:04:42.106Z,1.70
2022-08-11T12:07:27.956Z,1.90
2022-08-11T12:09:56.273Z,1.70
2022-08-11T12:12:44.360Z,1.67
2022-08-11T12:15:12.991Z,1.70
2022-08-11T12:17:41.445Z,1.73
2022-08-11T12:20:33.155Z,1.93
2022-08-11T12:23:19.298Z,1.67
2022-08-11T12:26:25.810Z,1.60
2022-08-11T12:28:53.043Z,2.13
2022-08-11T12:31:25.998Z,1.40
2022-08-11T12:33:56.086Z,1.67
2022-08-11T12:36:25.791Z,1.73
2022-08-11T12:38:54.018Z,1.80
2022-08-11T12:41:43.685Z,1.60
2022-08-11T12:44:37.577Z,1.43
2022-08-11T12:47:06.018Z,1.60
2022-08-11T12:49:52.239Z,2.20
2022-08-11T12:52:26.270Z,1.33
2022-08-11T12:55:00.325Z,1.40
2022-08-11T12:57:53.081Z,1.30
2022-08-11T13:00:39.340Z,1.30
2022-08-11T13:03:26.628Z,1.63
2022-08-11T13:05:56.818Z,1.30
2022-08-11T13:08:27.872Z,1.30
2022-08-11T13:11:14.924Z,1.20
2022-08-11T13:13:52.741Z,1.60
2022-08-11T13:16:24.928Z,1.20
2022-08-11T13:18:53.679Z,1.40
2022-08-11T13:21:22.474Z,1.23
2022-08-11T13:24:01.886Z,1.70
2022-08-11T13:26:47.225Z,2.13
2022-08-11T13:29:22.315Z,1.70
2022-08-11T13:31:50.863Z,1.43
2022-08-11T13:34:19.830Z,1.30
2022-08-11T13:36:49.783Z,1.20
2022-08-11T13:39:19.429Z,1.43
2022-08-11T13:41:48.537Z,1.10
2022-08-11T13:44:24.802Z,1.13
2022-08-11T13:46:55.263Z,1.20
2022-08-11T13:49:23.706Z,1.00
2022-08-11T13:51:51.929Z,1.27
2022-08-11T13:54:23.125Z,1.17
2022-08-11T13:56:54.158Z,0.80
2022-08-11T13:59:29.843Z,0.80
2022-08-11T14:02:28.741Z,1.13
2022-08-11T14:04:55.251Z,1.03
2022-08-11T14:07:25.198Z,1.20
2022-08-11T14:09:59.509Z,0.97
2022-08-11T14:12:46.777Z,1.17
2022-08-11T14:15:19.990Z,1.23
2022-08-11T14:17:52.138Z,1.07
2022-08-11T14:20:39.304Z,0.90
2022-08-11T14:23:10.923Z,1.13
2022-08-11T14:26:02.299Z,1.10
2022-08-11T14:28:38.820Z,1.20
2022-08-11T14:31:10.222Z,1.07
2022-08-11T14:33:58.546Z,1.47
2022-08-11T14:36:28.629Z,1.20
2022-08-11T14:38:56.877Z,1.13
2022-08-11T14:42:11.635Z,1.00
2022-08-11T14:44:50.181Z,1.40
2022-08-11T14:47:23.963Z,1.17
2022-08-11T14:50:09.571Z,1.17
2022-08-11T14:52:39.410Z,1.00
2022-08-11T14:55:26.649Z,1.00
2022-08-11T14:57:56.988Z,1.23
2022-08-11T15:00:25.476Z,1.23
2022-08-11T15:03:10.890Z,1.13
2022-08-11T15:05:56.318Z,0.83
2022-08-11T15:08:42.407Z,1.00
2022-08-11T15:11:32.302Z,1.30
2022-08-11T15:14:02.938Z,1.10
2022-08-11T15:16:48.628Z,0.97
2022-08-11T15:19:16.902Z,1.37
2022-08-11T15:21:59.101Z,1.10
2022-08-11T15:24:30.654Z,1.33
2022-08-11T15:27:16.803Z,1.07
2022-08-11T15:30:04.131Z,1.00
2022-08-11T15:32:49.715Z,0.83
2022-08-11T15:35:39.403Z,1.00
2022-08-11T15:38:08.175Z,0.80
2022-08-11T15:40:56.672Z,1.20
2022-08-11T15:43:47.150Z,1.17
2022-08-11T15:46:20.432Z,0.90
2022-08-11T15:48:51.446Z,1.00
2022-08-11T15:51:25.054Z,0.90
2022-08-11T15:53:56.726Z,1.00
2022-08-11T15:56:26.613Z,0.93
2022-08-11T15:59:41.619Z,1.30
2022-08-11T16:02:20.750Z,0.93
2022-08-11T16:04:49.223Z,0.90
2022-08-11T16:07:18.740Z,1.00
2022-08-11T16:09:54.102Z,1.10
2022-08-11T16:12:30.246Z,0.80
2022-08-11T16:15:20.899Z,1.00
2022-08-11T16:17:52.693Z,0.90
2022-08-11T16:20:22.401Z,1.00
2022-08-11T16:23:00.507Z,0.83
2022-08-11T16:27:01.506Z,1.10
2022-08-11T16:28:20.785Z,0.93
2022-08-11T16:30:49.107Z,0.80
2022-08-11T16:33:48.346Z,0.83
2022-08-11T16:36:25.748Z,0.80
2022-08-11T16:38:54.596Z,0.90
2022-08-11T16:41:43.353Z,0.90
2022-08-11T16:44:36.926Z,0.80
2022-08-11T16:47:06.671Z,1.00
2022-08-11T16:49:37.765Z,0.90
2022-08-11T16:52:08.094Z,1.20
2022-08-11T16:54:36.655Z,2.00
2022-08-11T16:57:27.656Z,0.80
2022-08-11T16:59:58.016Z,0.90
2022-08-11T17:02:44.473Z,1.17
2022-08-11T17:05:35.213Z,0.90
2022-08-11T17:08:24.735Z,0.70
2022-08-11T17:11:13.287Z,0.90
2022-08-11T17:13:45.972Z,1.10
2022-08-11T17:16:15.471Z,1.10
2022-08-11T17:18:50.530Z,1.00
2022-08-11T17:21:26.939Z,1.20
2022-08-11T17:23:56.071Z,1.00
2022-08-11T17:26:51.534Z,0.80
2022-08-11T17:29:21.777Z,1.30
2022-08-11T17:32:07.452Z,1.97
2022-08-11T17:34:53.632Z,1.40
2022-08-11T17:37:23.368Z,0.90
2022-08-11T17:39:52.016Z,1.07
2022-08-11T17:42:37.967Z,1.47
2022-08-11T17:45:25.126Z,1.00
2022-08-11T17:48:10.663Z,1.10
2022-08-11T17:50:38.847Z,1.20
2022-08-11T17:53:34.579Z,0.90
2022-08-11T17:56:28.851Z,1.00
2022-08-11T17:59:15.216Z,1.30
2022-08-11T18:01:44.462Z,1.17
2022-08-11T18:04:12.914Z,1.10
2022-08-11T18:06:41.576Z,1.30
2022-08-11T18:09:32.350Z,1.17
2022-08-11T18:12:18.696Z,1.00
2022-08-11T18:15:07.262Z,1.37
2022-08-11T18:17:52.877Z,1.00
2022-08-11T18:20:38.915Z,0.90
2022-08-11T18:23:40.583Z,0.87
2022-08-11T18:26:34.895Z,0.97
2022-08-11T18:29:20.767Z,1.40
2022-08-11T18:32:07.126Z,1.43
2022-08-11T18:34:59.136Z,1.40
2022-08-11T18:37:47.422Z,1.00
2022-08-11T18:40:36.525Z,1.03
2022-08-11T18:43:27.318Z,1.07
2022-08-11T18:46:16.142Z,1.47
2022-08-11T18:49:11.804Z,1.20
2022-08-11T18:52:00.478Z,1.60
2022-08-11T18:54:48.869Z,1.67
2022-08-11T18:57:53.836Z,1.10
2022-08-11T19:00:42.347Z,2.33
2022-08-11T19:03:29.207Z,1.90
2022-08-11T19:06:38.317Z,2.37
2022-08-11T19:09:25.362Z,1.97
2022-08-11T19:12:10.986Z,2.23
2022-08-11T19:14:56.566Z,1.40
2022-08-11T19:17:46.013Z,1.87
2022-08-11T19:20:36.697Z,2.50
2022-08-11T19:23:24.171Z,1.50
2022-08-11T19:26:10.228Z,1.67
2022-08-11T19:28:56.377Z,1.60
2022-08-11T19:31:44.825Z,1.50
2022-08-11T19:34:32.848Z,1.50
2022-08-11T19:37:22.144Z,1.80
2022-08-11T19:40:11.245Z,1.80
2022-08-11T19:42:56.870Z,2.30
2022-08-11T19:45:42.500Z,1.90
2022-08-11T19:48:32.552Z,2.17
2022-08-11T19:51:19.680Z,1.80
2022-08-11T19:54:06.284Z,2.10
2022-08-11T19:56:52.543Z,1.60
2022-08-11T19:59:40.535Z,2.03
2022-08-11T20:02:26.811Z,2.40
2022-08-11T20:05:12.636Z,1.60
2022-08-11T20:07:59.600Z,1.90
2022-08-11T20:10:45.491Z,2.30
2022-08-11T20:13:31.086Z,2.27
2022-08-11T20:16:16.659Z,1.63
2022-08-11T20:19:02.281Z,1.37
2022-08-11T20:21:47.969Z,1.80
2022-08-11T20:24:35.338Z,1.40
2022-08-11T20:27:24.948Z,1.93
2022-08-11T20:30:11.083Z,3.80
2022-08-11T20:32:56.649Z,5.73
2022-08-11T20:35:42.318Z,5.30
2022-08-11T20:38:27.880Z,3.80
2022-08-11T20:41:16.261Z,2.73
2022-08-11T20:44:08.303Z,2.23
2022-08-11T20:46:57.744Z,3.23
2022-08-11T20:49:53.896Z,3.50
2022-08-11T20:52:47.162Z,3.43
2022-08-11T20:55:46.420Z,3.67
2022-08-11T21:01:46.181Z,2.20
2022-08-11T21:04:32.492Z,2.77
2022-08-11T21:07:27.086Z,6.30
2022-08-11T21:10:22.860Z,5.97
2022-08-11T21:13:23.973Z,5.10
2022-08-11T21:16:25.251Z,2.73
2022-08-11T21:19:16.483Z,1.67
2022-08-11T21:22:02.235Z,1.80
2022-08-11T21:24:49.420Z,2.30
2022-08-11T21:27:35.540Z,2.20
2022-08-11T21:30:21.227Z,2.30
2022-08-11T21:33:08.397Z,1.93
2022-08-11T21:35:54.087Z,2.23
2022-08-11T21:38:39.606Z,2.00
2022-08-11T21:41:25.361Z,1.80
2022-08-11T21:44:10.942Z,1.70
2022-08-11T21:46:57.054Z,2.00
2022-08-11T21:49:44.484Z,1.60
2022-08-11T21:52:30.098Z,2.50
2022-08-11T21:55:15.904Z,1.60
2022-08-11T21:58:57.974Z,1.83
2022-08-11T22:01:52.540Z,1.80
2022-08-11T22:04:38.404Z,2.03
2022-08-11T22:07:25.698Z,1.90
2022-08-11T22:10:27.609Z,2.13
2022-08-11T22:13:16.683Z,1.73
2022-08-11T22:16:02.534Z,1.40
2022-08-11T22:18:48.131Z,2.07
2022-08-11T22:22:02.413Z,1.70
2022-08-11T22:24:43.515Z,1.97
2022-08-11T22:27:29.337Z,2.20
2022-08-11T22:30:14.897Z,1.80
2022-08-11T22:33:00.976Z,1.70
2022-08-11T22:35:47.026Z,2.00
2022-08-11T22:38:33.515Z,1.80
2022-08-11T22:41:22.158Z,1.60
2022-08-11T22:44:08.130Z,2.20
2022-08-11T22:46:53.750Z,1.80
2022-08-11T22:49:57.191Z,1.50
2022-08-11T22:52:44.198Z,1.90
2022-08-11T22:55:29.804Z,2.03
2022-08-11T22:58:16.982Z,1.80
2022-08-11T23:01:02.656Z,1.70
2022-08-11T23:03:49.190Z,1.70
2022-08-11T23:06:34.718Z,1.60
2022-08-11T23:09:20.541Z,2.03
2022-08-11T23:12:10.335Z,1.40
2022-08-11T23:14:58.896Z,2.07
2022-08-11T23:17:45.176Z,2.10
2022-08-11T23:20:39.837Z,1.90
2022-08-11T23:23:38.526Z,2.37
2022-08-11T23:26:24.547Z,2.50
2022-08-11T23:29:11.082Z,2.37
2022-08-11T23:31:58.148Z,3.00
2022-08-11T23:35:04.578Z,2.43
2022-08-11T23:37:55.768Z,2.00
2022-08-11T23:40:45.614Z,2.90
2022-08-11T23:43:38.674Z,2.30
2022-08-11T23:46:24.482Z,2.50
2022-08-11T23:49:15.554Z,2.13
2022-08-11T23:52:01.598Z,1.93
2022-08-11T23:54:47.137Z,2.17
2022-08-11T23:57:32.958Z,2.23
